sensor_id;sensor_type;location;lat;lon;timestamp;P1;durP1;ratioP1;P2;durP2;ratioP2
37973;SDS011;23796;51.458;7.000;2023-12-22T00:00:09;7.05;;;1.55;;
37973;SDS011;23796;51.458;7.000;2023-12-22T00:02:34;5.45;;;1.55;;
37973;SDS011;23796;51.458;7.000;2023-12-22T00:05:00;6.65;;;2.08;;
37973;SDS011;23796;51.458;7.000;2023-12-22T00:07:26;4.35;;;1.58;;
37973;SDS011;23796;51.458;7.000;2023-12-22T00:09:51;8.05;;;1.95;;
37973;SDS011;23796;51.458;7.000;2023-12-22T00:12:17;8.32;;;2.20;;
37973;SDS011;23796;51.458;7.000;2023-12-22T00:14:42;8.18;;;1.70;;
37973;SDS011;23796;51.458;7.000;2023-12-22T00:17:08;8.85;;;2.33;;
37973;SDS011;23796;51.458;7.000;2023-12-22T00:19:33;7.53;;;1.73;;
37973;SDS011;23796;51.458;7.000;2023-12-22T00:21:59;6.65;;;2.22;;
37973;SDS011;23796;51.458;7.000;2023-12-22T00:24:25;7.97;;;1.83;;
37973;SDS011;23796;51.458;7.000;2023-12-22T00:26:52;6.43;;;1.77;;
37973;SDS011;23796;51.458;7.000;2023-12-22T00:29:18;9.02;;;1.65;;
37973;SDS011;23796;51.458;7.000;2023-12-22T00:31:44;6.10;;;1.85;;
37973;SDS011;23796;51.458;7.000;2023-12-22T00:34:09;9.48;;;2.00;;
37973;SDS011;23796;51.458;7.000;2023-12-22T00:36:35;8.52;;;2.33;;
37973;SDS011;23796;51.458;7.000;2023-12-22T00:39:00;6.15;;;2.28;;
37973;SDS011;23796;51.458;7.000;2023-12-22T00:41:28;5.60;;;2.05;;
37973;SDS011;23796;51.458;7.000;2023-12-22T00:43:56;8.77;;;1.77;;
37973;SDS011;23796;51.458;7.000;2023-12-22T00:46:21;9.63;;;2.35;;
37973;SDS011;23796;51.458;7.000;2023-12-22T00:48:49;6.47;;;1.70;;
37973;SDS011;23796;51.458;7.000;2023-12-22T00:51:15;6.95;;;1.73;;
37973;SDS011;23796;51.458;7.000;2023-12-22T00:53:41;9.52;;;1.98;;
37973;SDS011;23796;51.458;7.000;2023-12-22T00:56:07;5.68;;;1.60;;
37973;SDS011;23796;51.458;7.000;2023-12-22T00:58:33;7.47;;;2.05;;
37973;SDS011;23796;51.458;7.000;2023-12-22T01:00:58;7.57;;;1.33;;
37973;SDS011;23796;51.458;7.000;2023-12-22T01:03:24;7.82;;;1.70;;
37973;SDS011;23796;51.458;7.000;2023-12-22T01:05:52;12.77;;;2.20;;
37973;SDS011;23796;51.458;7.000;2023-12-22T01:08:17;10.80;;;2.85;;
37973;SDS011;23796;51.458;7.000;2023-12-22T01:10:43;9.93;;;2.85;;
37973;SDS011;23796;51.458;7.000;2023-12-22T01:13:08;11.93;;;2.72;;
37973;SDS011;23796;51.458;7.000;2023-12-22T01:15:34;9.13;;;2.10;;
37973;SDS011;23796;51.458;7.000;2023-12-22T01:17:59;7.00;;;1.95;;
37973;SDS011;23796;51.458;7.000;2023-12-22T01:20:25;9.20;;;1.95;;
37973;SDS011;23796;51.458;7.000;2023-12-22T01:22:53;8.57;;;1.80;;
37973;SDS011;23796;51.458;7.000;2023-12-22T01:25:18;7.53;;;1.40;;
37973;SDS011;23796;51.458;7.000;2023-12-22T01:27:46;5.25;;;1.65;;
37973;SDS011;23796;51.458;7.000;2023-12-22T01:30:13;4.95;;;1.00;;
37973;SDS011;23796;51.458;7.000;2023-12-22T01:32:39;3.70;;;0.70;;
37973;SDS011;23796;51.458;7.000;2023-12-22T01:35:05;7.03;;;0.98;;
37973;SDS011;23796;51.458;7.000;2023-12-22T01:37:37;4.07;;;0.85;;
37973;SDS011;23796;51.458;7.000;2023-12-22T01:40:03;3.25;;;0.40;;
37973;SDS011;23796;51.458;7.000;2023-12-22T01:42:29;3.72;;;0.70;;
37973;SDS011;23796;51.458;7.000;2023-12-22T01:44:57;2.95;;;0.70;;
37973;SDS011;23796;51.458;7.000;2023-12-22T01:47:22;3.67;;;0.80;;
37973;SDS011;23796;51.458;7.000;2023-12-22T01:49:48;8.07;;;1.10;;
37973;SDS011;23796;51.458;7.000;2023-12-22T01:52:14;2.22;;;0.47;;
37973;SDS011;23796;51.458;7.000;2023-12-22T01:54:41;2.30;;;0.55;;
37973;SDS011;23796;51.458;7.000;2023-12-22T01:57:10;2.97;;;0.60;;
37973;SDS011;23796;51.458;7.000;2023-12-22T01:59:39;5.43;;;0.80;;
37973;SDS011;23796;51.458;7.000;2023-12-22T02:02:05;4.57;;;0.70;;
37973;SDS011;23796;51.458;7.000;2023-12-22T02:04:30;7.25;;;1.38;;
37973;SDS011;23796;51.458;7.000;2023-12-22T02:06:57;4.93;;;1.17;;
37973;SDS011;23796;51.458;7.000;2023-12-22T02:09:26;6.22;;;0.82;;
37973;SDS011;23796;51.458;7.000;2023-12-22T02:11:54;8.27;;;0.95;;
37973;SDS011;23796;51.458;7.000;2023-12-22T02:14:22;5.93;;;0.90;;
37973;SDS011;23796;51.458;7.000;2023-12-22T02:16:50;3.88;;;0.95;;
37973;SDS011;23796;51.458;7.000;2023-12-22T02:22:10;5.68;;;1.55;;
37973;SDS011;23796;51.458;7.000;2023-12-22T02:24:37;5.20;;;1.25;;
37973;SDS011;23796;51.458;7.000;2023-12-22T02:29:30;6.20;;;1.45;;
37973;SDS011;23796;51.458;7.000;2023-12-22T02:31:59;4.63;;;1.10;;
37973;SDS011;23796;51.458;7.000;2023-12-22T02:34:31;5.45;;;1.25;;
37973;SDS011;23796;51.458;7.000;2023-12-22T02:37:03;5.90;;;1.70;;
37973;SDS011;23796;51.458;7.000;2023-12-22T02:39:31;8.05;;;1.80;;
37973;SDS011;23796;51.458;7.000;2023-12-22T02:42:00;7.18;;;2.13;;
37973;SDS011;23796;51.458;7.000;2023-12-22T02:44:25;7.07;;;1.85;;
37973;SDS011;23796;51.458;7.000;2023-12-22T02:46:52;8.15;;;1.77;;
37973;SDS011;23796;51.458;7.000;2023-12-22T02:49:17;4.40;;;1.20;;
37973;SDS011;23796;51.458;7.000;2023-12-22T02:51:43;5.50;;;1.17;;
37973;SDS011;23796;51.458;7.000;2023-12-22T02:54:09;5.20;;;1.23;;
37973;SDS011;23796;51.458;7.000;2023-12-22T02:56:35;7.22;;;1.77;;
37973;SDS011;23796;51.458;7.000;2023-12-22T02:59:01;6.07;;;1.30;;
37973;SDS011;23796;51.458;7.000;2023-12-22T03:01:28;5.95;;;1.50;;
37973;SDS011;23796;51.458;7.000;2023-12-22T03:03:54;7.15;;;1.73;;
37973;SDS011;23796;51.458;7.000;2023-12-22T03:06:19;6.43;;;1.73;;
37973;SDS011;23796;51.458;7.000;2023-12-22T03:08:47;7.07;;;2.15;;
37973;SDS011;23796;51.458;7.000;2023-12-22T03:11:15;7.65;;;2.30;;
37973;SDS011;23796;51.458;7.000;2023-12-22T03:13:40;7.45;;;2.40;;
37973;SDS011;23796;51.458;7.000;2023-12-22T03:16:09;9.20;;;2.95;;
37973;SDS011;23796;51.458;7.000;2023-12-22T03:18:37;7.15;;;2.17;;
37973;SDS011;23796;51.458;7.000;2023-12-22T03:21:04;12.35;;;2.28;;
37973;SDS011;23796;51.458;7.000;2023-12-22T03:23:31;6.40;;;2.03;;
37973;SDS011;23796;51.458;7.000;2023-12-22T03:25:57;7.95;;;1.92;;
37973;SDS011;23796;51.458;7.000;2023-12-22T03:28:22;8.00;;;2.03;;
37973;SDS011;23796;51.458;7.000;2023-12-22T03:30:48;9.45;;;3.25;;
37973;SDS011;23796;51.458;7.000;2023-12-22T03:33:14;10.00;;;3.78;;
37973;SDS011;23796;51.458;7.000;2023-12-22T03:35:42;9.57;;;2.92;;
37973;SDS011;23796;51.458;7.000;2023-12-22T03:38:07;9.05;;;2.85;;
37973;SDS011;23796;51.458;7.000;2023-12-22T03:40:33;10.30;;;3.10;;
37973;SDS011;23796;51.458;7.000;2023-12-22T03:42:58;9.52;;;2.22;;
37973;SDS011;23796;51.458;7.000;2023-12-22T03:45:24;9.50;;;2.28;;
37973;SDS011;23796;51.458;7.000;2023-12-22T03:47:50;7.82;;;1.88;;
37973;SDS011;23796;51.458;7.000;2023-12-22T03:50:18;11.65;;;2.80;;
37973;SDS011;23796;51.458;7.000;2023-12-22T03:52:43;8.82;;;2.17;;
37973;SDS011;23796;51.458;7.000;2023-12-22T03:55:09;6.65;;;2.42;;
37973;SDS011;23796;51.458;7.000;2023-12-22T03:57:37;10.10;;;3.58;;
37973;SDS011;23796;51.458;7.000;2023-12-22T04:00:02;10.35;;;2.63;;
37973;SDS011;23796;51.458;7.000;2023-12-22T04:02:29;13.55;;;3.35;;
37973;SDS011;23796;51.458;7.000;2023-12-22T04:04:54;10.38;;;2.65;;
37973;SDS011;23796;51.458;7.000;2023-12-22T04:07:20;8.88;;;2.20;;
37973;SDS011;23796;51.458;7.000;2023-12-22T04:09:46;11.07;;;2.55;;
37973;SDS011;23796;51.458;7.000;2023-12-22T04:12:11;12.18;;;2.78;;
37973;SDS011;23796;51.458;7.000;2023-12-22T04:14:37;8.13;;;1.80;;
37973;SDS011;23796;51.458;7.000;2023-12-22T04:17:02;10.98;;;2.25;;
37973;SDS011;23796;51.458;7.000;2023-12-22T04:19:30;8.88;;;2.10;;
37973;SDS011;23796;51.458;7.000;2023-12-22T04:21:56;9.25;;;2.17;;
37973;SDS011;23796;51.458;7.000;2023-12-22T04:24:24;10.32;;;2.03;;
37973;SDS011;23796;51.458;7.000;2023-12-22T04:26:52;7.60;;;1.55;;
37973;SDS011;23796;51.458;7.000;2023-12-22T04:29:17;8.18;;;1.70;;
37973;SDS011;23796;51.458;7.000;2023-12-22T04:31:43;9.98;;;2.05;;
37973;SDS011;23796;51.458;7.000;2023-12-22T04:34:09;6.60;;;1.60;;
37973;SDS011;23796;51.458;7.000;2023-12-22T04:36:37;11.77;;;2.40;;
37973;SDS011;23796;51.458;7.000;2023-12-22T04:39:02;7.85;;;2.25;;
37973;SDS011;23796;51.458;7.000;2023-12-22T04:41:28;12.35;;;3.05;;
37973;SDS011;23796;51.458;7.000;2023-12-22T04:43:53;11.27;;;3.67;;
37973;SDS011;23796;51.458;7.000;2023-12-22T04:46:21;8.38;;;2.05;;
37973;SDS011;23796;51.458;7.000;2023-12-22T04:48:47;11.77;;;2.42;;
37973;SDS011;23796;51.458;7.000;2023-12-22T04:51:12;10.82;;;2.03;;
37973;SDS011;23796;51.458;7.000;2023-12-22T04:53:38;7.32;;;2.03;;
37973;SDS011;23796;51.458;7.000;2023-12-22T04:56:03;9.15;;;2.30;;
37973;SDS011;23796;51.458;7.000;2023-12-22T04:58:29;7.97;;;2.05;;
37973;SDS011;23796;51.458;7.000;2023-12-22T05:00:55;5.93;;;1.30;;
37973;SDS011;23796;51.458;7.000;2023-12-22T05:03:20;5.28;;;1.15;;
37973;SDS011;23796;51.458;7.000;2023-12-22T05:05:47;4.32;;;0.75;;
37973;SDS011;23796;51.458;7.000;2023-12-22T05:08:12;7.75;;;1.10;;
37973;SDS011;23796;51.458;7.000;2023-12-22T05:10:38;6.00;;;1.30;;
37973;SDS011;23796;51.458;7.000;2023-12-22T05:13:03;4.75;;;1.00;;
37973;SDS011;23796;51.458;7.000;2023-12-22T05:15:29;5.80;;;1.20;;
37973;SDS011;23796;51.458;7.000;2023-12-22T05:17:54;3.63;;;0.85;;
37973;SDS011;23796;51.458;7.000;2023-12-22T05:20:23;5.05;;;0.77;;
37973;SDS011;23796;51.458;7.000;2023-12-22T05:22:50;5.45;;;1.10;;
37973;SDS011;23796;51.458;7.000;2023-12-22T05:25:16;4.63;;;1.00;;
37973;SDS011;23796;51.458;7.000;2023-12-22T05:27:41;3.33;;;0.68;;
37973;SDS011;23796;51.458;7.000;2023-12-22T05:30:08;5.78;;;1.13;;
37973;SDS011;23796;51.458;7.000;2023-12-22T05:32:34;3.90;;;1.10;;
37973;SDS011;23796;51.458;7.000;2023-12-22T05:34:59;5.28;;;0.80;;
37973;SDS011;23796;51.458;7.000;2023-12-22T05:37:25;6.57;;;1.10;;
37973;SDS011;23796;51.458;7.000;2023-12-22T05:39:51;6.78;;;2.03;;
37973;SDS011;23796;51.458;7.000;2023-12-22T05:42:16;7.53;;;2.05;;
37973;SDS011;23796;51.458;7.000;2023-12-22T05:44:42;8.05;;;1.90;;
37973;SDS011;23796;51.458;7.000;2023-12-22T05:47:08;6.45;;;1.88;;
37973;SDS011;23796;51.458;7.000;2023-12-22T05:49:33;6.88;;;1.73;;
37973;SDS011;23796;51.458;7.000;2023-12-22T05:52:02;9.27;;;1.88;;
37973;SDS011;23796;51.458;7.000;2023-12-22T05:54:27;6.72;;;2.00;;
37973;SDS011;23796;51.458;7.000;2023-12-22T05:56:53;8.20;;;2.15;;
37973;SDS011;23796;51.458;7.000;2023-12-22T05:59:18;10.43;;;2.88;;
37973;SDS011;23796;51.458;7.000;2023-12-22T06:01:44;7.75;;;1.95;;
37973;SDS011;23796;51.458;7.000;2023-12-22T06:04:12;8.85;;;1.98;;
37973;SDS011;23796;51.458;7.000;2023-12-22T06:06:37;8.80;;;2.05;;
37973;SDS011;23796;51.458;7.000;2023-12-22T06:09:04;4.65;;;1.60;;
37973;SDS011;23796;51.458;7.000;2023-12-22T06:11:30;7.90;;;2.17;;
37973;SDS011;23796;51.458;7.000;2023-12-22T06:13:55;8.27;;;2.20;;
37973;SDS011;23796;51.458;7.000;2023-12-22T06:16:21;6.65;;;2.33;;
37973;SDS011;23796;51.458;7.000;2023-12-22T06:18:47;9.50;;;2.83;;
37973;SDS011;23796;51.458;7.000;2023-12-22T06:21:15;8.52;;;3.30;;
37973;SDS011;23796;51.458;7.000;2023-12-22T06:23:40;9.82;;;2.60;;
37973;SDS011;23796;51.458;7.000;2023-12-22T06:26:11;11.10;;;2.35;;
37973;SDS011;23796;51.458;7.000;2023-12-22T06:28:36;14.02;;;3.80;;
37973;SDS011;23796;51.458;7.000;2023-12-22T06:31:04;9.90;;;3.70;;
37973;SDS011;23796;51.458;7.000;2023-12-22T06:33:43;7.47;;;2.88;;
37973;SDS011;23796;51.458;7.000;2023-12-22T06:36:17;11.02;;;3.70;;
37973;SDS011;23796;51.458;7.000;2023-12-22T06:38:52;11.30;;;2.70;;
37973;SDS011;23796;51.458;7.000;2023-12-22T06:43:45;14.18;;;3.97;;
37973;SDS011;23796;51.458;7.000;2023-12-22T06:48:42;16.88;;;2.72;;
37973;SDS011;23796;51.458;7.000;2023-12-22T06:51:16;13.43;;;2.95;;
37973;SDS011;23796;51.458;7.000;2023-12-22T06:54:03;10.13;;;3.00;;
37973;SDS011;23796;51.458;7.000;2023-12-22T06:56:30;11.43;;;2.97;;
37973;SDS011;23796;51.458;7.000;2023-12-22T06:58:59;13.98;;;3.33;;
37973;SDS011;23796;51.458;7.000;2023-12-22T07:01:32;7.30;;;2.17;;
37973;SDS011;23796;51.458;7.000;2023-12-22T07:03:59;8.68;;;2.58;;
37973;SDS011;23796;51.458;7.000;2023-12-22T07:06:26;7.50;;;2.10;;
37973;SDS011;23796;51.458;7.000;2023-12-22T07:08:56;10.73;;;2.90;;
37973;SDS011;23796;51.458;7.000;2023-12-22T07:11:51;10.23;;;2.38;;
37973;SDS011;23796;51.458;7.000;2023-12-22T07:14:23;11.80;;;3.15;;
37973;SDS011;23796;51.458;7.000;2023-12-22T07:16:49;9.10;;;1.65;;
37973;SDS011;23796;51.458;7.000;2023-12-22T07:19:18;7.80;;;1.75;;
37973;SDS011;23796;51.458;7.000;2023-12-22T07:21:44;6.05;;;1.67;;
37973;SDS011;23796;51.458;7.000;2023-12-22T07:24:11;9.40;;;2.13;;
37973;SDS011;23796;51.458;7.000;2023-12-22T07:26:37;9.43;;;2.13;;
37973;SDS011;23796;51.458;7.000;2023-12-22T07:29:02;13.43;;;2.45;;
37973;SDS011;23796;51.458;7.000;2023-12-22T07:31:28;8.95;;;2.42;;
37973;SDS011;23796;51.458;7.000;2023-12-22T07:33:54;8.35;;;2.05;;
37973;SDS011;23796;51.458;7.000;2023-12-22T07:36:19;11.82;;;2.38;;
37973;SDS011;23796;51.458;7.000;2023-12-22T07:38:46;10.10;;;2.42;;
37973;SDS011;23796;51.458;7.000;2023-12-22T07:41:11;10.07;;;2.50;;
37973;SDS011;23796;51.458;7.000;2023-12-22T07:43:37;9.82;;;1.88;;
37973;SDS011;23796;51.458;7.000;2023-12-22T07:46:03;8.98;;;2.90;;
37973;SDS011;23796;51.458;7.000;2023-12-22T07:48:28;9.25;;;2.20;;
37973;SDS011;23796;51.458;7.000;2023-12-22T07:50:54;9.93;;;1.92;;
37973;SDS011;23796;51.458;7.000;2023-12-22T07:53:21;7.90;;;2.25;;
37973;SDS011;23796;51.458;7.000;2023-12-22T07:55:50;11.52;;;3.38;;
37973;SDS011;23796;51.458;7.000;2023-12-22T07:58:18;12.93;;;2.72;;
37973;SDS011;23796;51.458;7.000;2023-12-22T08:00:46;11.90;;;2.92;;
37973;SDS011;23796;51.458;7.000;2023-12-22T08:03:14;10.55;;;2.88;;
37973;SDS011;23796;51.458;7.000;2023-12-22T08:05:40;9.77;;;2.47;;
37973;SDS011;23796;51.458;7.000;2023-12-22T08:08:07;11.10;;;2.40;;
37973;SDS011;23796;51.458;7.000;2023-12-22T08:10:34;10.88;;;2.72;;
37973;SDS011;23796;51.458;7.000;2023-12-22T08:12:59;12.68;;;3.10;;
37973;SDS011;23796;51.458;7.000;2023-12-22T08:15:27;16.33;;;3.22;;
37973;SDS011;23796;51.458;7.000;2023-12-22T08:17:53;10.18;;;2.83;;
37973;SDS011;23796;51.458;7.000;2023-12-22T08:20:21;16.30;;;3.25;;
37973;SDS011;23796;51.458;7.000;2023-12-22T08:22:49;13.10;;;2.42;;
37973;SDS011;23796;51.458;7.000;2023-12-22T08:25:16;15.38;;;4.05;;
37973;SDS011;23796;51.458;7.000;2023-12-22T08:27:47;12.07;;;3.70;;
37973;SDS011;23796;51.458;7.000;2023-12-22T08:30:13;16.67;;;4.20;;
37973;SDS011;23796;51.458;7.000;2023-12-22T08:32:41;12.80;;;3.47;;
37973;SDS011;23796;51.458;7.000;2023-12-22T08:35:06;11.15;;;3.85;;
37973;SDS011;23796;51.458;7.000;2023-12-22T08:37:32;17.90;;;4.20;;
37973;SDS011;23796;51.458;7.000;2023-12-22T08:39:58;15.68;;;5.32;;
37973;SDS011;23796;51.458;7.000;2023-12-22T08:42:24;18.15;;;4.15;;
37973;SDS011;23796;51.458;7.000;2023-12-22T08:44:51;16.13;;;4.82;;
37973;SDS011;23796;51.458;7.000;2023-12-22T08:47:19;19.58;;;4.75;;
37973;SDS011;23796;51.458;7.000;2023-12-22T08:49:45;14.02;;;4.05;;
37973;SDS011;23796;51.458;7.000;2023-12-22T08:52:10;17.77;;;4.68;;
37973;SDS011;23796;51.458;7.000;2023-12-22T08:54:36;18.25;;;4.55;;
37973;SDS011;23796;51.458;7.000;2023-12-22T08:57:02;17.00;;;4.78;;
37973;SDS011;23796;51.458;7.000;2023-12-22T08:59:30;18.23;;;4.78;;
37973;SDS011;23796;51.458;7.000;2023-12-22T09:01:55;18.73;;;5.47;;
37973;SDS011;23796;51.458;7.000;2023-12-22T09:04:21;20.92;;;5.72;;
37973;SDS011;23796;51.458;7.000;2023-12-22T09:06:49;19.73;;;6.00;;
37973;SDS011;23796;51.458;7.000;2023-12-22T09:09:15;18.73;;;4.75;;
37973;SDS011;23796;51.458;7.000;2023-12-22T09:11:41;9.82;;;2.20;;
37973;SDS011;23796;51.458;7.000;2023-12-22T09:14:09;11.32;;;3.28;;
37973;SDS011;23796;51.458;7.000;2023-12-22T09:16:35;14.85;;;2.83;;
37973;SDS011;23796;51.458;7.000;2023-12-22T09:19:01;11.40;;;2.50;;
37973;SDS011;23796;51.458;7.000;2023-12-22T09:21:27;9.00;;;2.00;;
37973;SDS011;23796;51.458;7.000;2023-12-22T09:23:53;7.40;;;1.92;;
37973;SDS011;23796;51.458;7.000;2023-12-22T09:26:19;7.32;;;1.60;;
37973;SDS011;23796;51.458;7.000;2023-12-22T09:28:45;7.65;;;1.88;;
37973;SDS011;23796;51.458;7.000;2023-12-22T09:31:10;8.57;;;1.90;;
37973;SDS011;23796;51.458;7.000;2023-12-22T09:33:39;10.35;;;2.28;;
37973;SDS011;23796;51.458;7.000;2023-12-22T09:36:06;7.07;;;1.83;;
37973;SDS011;23796;51.458;7.000;2023-12-22T09:38:32;10.18;;;2.72;;
37973;SDS011;23796;51.458;7.000;2023-12-22T09:40:58;6.38;;;1.67;;
37973;SDS011;23796;51.458;7.000;2023-12-22T09:43:24;7.28;;;1.65;;
37973;SDS011;23796;51.458;7.000;2023-12-22T09:45:52;8.82;;;2.53;;
37973;SDS011;23796;51.458;7.000;2023-12-22T09:48:18;14.60;;;4.00;;
37973;SDS011;23796;51.458;7.000;2023-12-22T09:50:52;9.93;;;2.83;;
37973;SDS011;23796;51.458;7.000;2023-12-22T09:53:17;11.68;;;3.40;;
37973;SDS011;23796;51.458;7.000;2023-12-22T09:55:45;10.02;;;3.05;;
37973;SDS011;23796;51.458;7.000;2023-12-22T09:58:12;12.02;;;3.05;;
37973;SDS011;23796;51.458;7.000;2023-12-22T10:00:42;13.20;;;3.85;;
37973;SDS011;23796;51.458;7.000;2023-12-22T10:03:08;11.15;;;3.10;;
37973;SDS011;23796;51.458;7.000;2023-12-22T10:05:36;12.48;;;3.00;;
37973;SDS011;23796;51.458;7.000;2023-12-22T10:08:02;14.88;;;3.70;;
37973;SDS011;23796;51.458;7.000;2023-12-22T10:10:30;11.40;;;3.90;;
37973;SDS011;23796;51.458;7.000;2023-12-22T10:12:58;14.13;;;3.92;;
37973;SDS011;23796;51.458;7.000;2023-12-22T10:15:29;17.40;;;4.22;;
37973;SDS011;23796;51.458;7.000;2023-12-22T10:17:55;15.10;;;3.03;;
37973;SDS011;23796;51.458;7.000;2023-12-22T10:20:21;9.43;;;2.63;;
37973;SDS011;23796;51.458;7.000;2023-12-22T10:22:47;18.98;;;3.53;;
37973;SDS011;23796;51.458;7.000;2023-12-22T10:25:15;11.35;;;3.53;;
37973;SDS011;23796;51.458;7.000;2023-12-22T10:27:44;14.13;;;3.97;;
37973;SDS011;23796;51.458;7.000;2023-12-22T10:30:10;13.15;;;4.60;;
37973;SDS011;23796;51.458;7.000;2023-12-22T10:32:39;12.73;;;4.18;;
37973;SDS011;23796;51.458;7.000;2023-12-22T10:35:08;13.55;;;5.03;;
37973;SDS011;23796;51.458;7.000;2023-12-22T10:37:34;18.80;;;5.85;;
37973;SDS011;23796;51.458;7.000;2023-12-22T10:40:05;13.48;;;5.32;;
37973;SDS011;23796;51.458;7.000;2023-12-22T10:42:31;11.45;;;4.72;;
37973;SDS011;23796;51.458;7.000;2023-12-22T10:44:57;12.15;;;5.03;;
37973;SDS011;23796;51.458;7.000;2023-12-22T10:47:23;15.18;;;3.95;;
37973;SDS011;23796;51.458;7.000;2023-12-22T10:49:49;11.88;;;4.32;;
37973;SDS011;23796;51.458;7.000;2023-12-22T10:52:18;10.27;;;4.25;;
37973;SDS011;23796;51.458;7.000;2023-12-22T10:54:45;8.45;;;3.35;;
37973;SDS011;23796;51.458;7.000;2023-12-22T10:57:11;7.90;;;2.10;;
37973;SDS011;23796;51.458;7.000;2023-12-22T10:59:46;5.60;;;1.65;;
37973;SDS011;23796;51.458;7.000;2023-12-22T11:02:16;3.63;;;0.75;;
37973;SDS011;23796;51.458;7.000;2023-12-22T11:04:57;3.53;;;0.73;;
37973;SDS011;23796;51.458;7.000;2023-12-22T11:07:27;5.05;;;0.73;;
37973;SDS011;23796;51.458;7.000;2023-12-22T11:09:55;4.28;;;0.93;;
37973;SDS011;23796;51.458;7.000;2023-12-22T11:12:23;4.00;;;0.70;;
37973;SDS011;23796;51.458;7.000;2023-12-22T11:14:51;2.35;;;0.40;;
37973;SDS011;23796;51.458;7.000;2023-12-22T11:17:21;2.75;;;0.60;;
37973;SDS011;23796;51.458;7.000;2023-12-22T11:19:50;3.15;;;1.23;;
37973;SDS011;23796;51.458;7.000;2023-12-22T11:22:18;2.50;;;0.70;;
37973;SDS011;23796;51.458;7.000;2023-12-22T11:24:49;1.90;;;0.50;;
37973;SDS011;23796;51.458;7.000;2023-12-22T11:27:18;3.40;;;0.60;;
37973;SDS011;23796;51.458;7.000;2023-12-22T11:29:48;3.60;;;0.60;;
37973;SDS011;23796;51.458;7.000;2023-12-22T11:32:15;2.17;;;0.60;;
37973;SDS011;23796;51.458;7.000;2023-12-22T11:34:45;3.05;;;0.85;;
37973;SDS011;23796;51.458;7.000;2023-12-22T11:37:12;3.03;;;0.82;;
37973;SDS011;23796;51.458;7.000;2023-12-22T11:39:39;3.35;;;1.00;;
37973;SDS011;23796;51.458;7.000;2023-12-22T11:42:06;5.28;;;1.55;;
37973;SDS011;23796;51.458;7.000;2023-12-22T11:44:39;6.53;;;1.90;;
37973;SDS011;23796;51.458;7.000;2023-12-22T11:47:09;5.03;;;1.52;;
37973;SDS011;23796;51.458;7.000;2023-12-22T11:49:38;5.60;;;1.40;;
37973;SDS011;23796;51.458;7.000;2023-12-22T11:54:48;5.90;;;1.80;;
37973;SDS011;23796;51.458;7.000;2023-12-22T12:02:44;5.53;;;1.60;;
37973;SDS011;23796;51.458;7.000;2023-12-22T12:05:19;5.10;;;1.10;;
37973;SDS011;23796;51.458;7.000;2023-12-22T12:07:45;4.20;;;1.25;;
37973;SDS011;23796;51.458;7.000;2023-12-22T12:13:05;6.72;;;1.60;;
37973;SDS011;23796;51.458;7.000;2023-12-22T12:15:33;5.60;;;1.05;;
37973;SDS011;23796;51.458;7.000;2023-12-22T12:17:59;4.63;;;1.27;;
37973;SDS011;23796;51.458;7.000;2023-12-22T12:23:00;5.25;;;1.20;;
37973;SDS011;23796;51.458;7.000;2023-12-22T12:25:29;4.53;;;0.90;;
37973;SDS011;23796;51.458;7.000;2023-12-22T12:28:03;5.93;;;2.00;;
37973;SDS011;23796;51.458;7.000;2023-12-22T12:30:34;5.68;;;1.20;;
37973;SDS011;23796;51.458;7.000;2023-12-22T12:33:08;6.97;;;1.40;;
37973;SDS011;23796;51.458;7.000;2023-12-22T12:35:34;4.18;;;1.30;;
37973;SDS011;23796;51.458;7.000;2023-12-22T12:38:01;2.90;;;1.00;;
37973;SDS011;23796;51.458;7.000;2023-12-22T12:40:28;6.38;;;1.80;;
37973;SDS011;23796;51.458;7.000;2023-12-22T12:42:59;5.57;;;1.60;;
37973;SDS011;23796;51.458;7.000;2023-12-22T12:45:25;3.67;;;1.50;;
37973;SDS011;23796;51.458;7.000;2023-12-22T12:47:55;4.45;;;1.40;;
37973;SDS011;23796;51.458;7.000;2023-12-22T12:50:24;2.88;;;0.90;;
37973;SDS011;23796;51.458;7.000;2023-12-22T12:52:51;4.72;;;1.00;;
37973;SDS011;23796;51.458;7.000;2023-12-22T12:55:19;5.20;;;1.10;;
37973;SDS011;23796;51.458;7.000;2023-12-22T12:57:49;4.07;;;0.80;;
37973;SDS011;23796;51.458;7.000;2023-12-22T13:00:28;4.53;;;1.23;;
37973;SDS011;23796;51.458;7.000;2023-12-22T13:03:15;3.30;;;0.95;;
37973;SDS011;23796;51.458;7.000;2023-12-22T13:05:40;3.40;;;1.10;;
37973;SDS011;23796;51.458;7.000;2023-12-22T13:08:06;5.90;;;1.83;;
37973;SDS011;23796;51.458;7.000;2023-12-22T13:10:33;3.80;;;1.30;;
37973;SDS011;23796;51.458;7.000;2023-12-22T13:12:59;3.45;;;1.30;;
37973;SDS011;23796;51.458;7.000;2023-12-22T13:15:25;5.78;;;1.33;;
37973;SDS011;23796;51.458;7.000;2023-12-22T13:17:51;4.43;;;1.30;;
37973;SDS011;23796;51.458;7.000;2023-12-22T13:20:17;3.08;;;0.90;;
37973;SDS011;23796;51.458;7.000;2023-12-22T13:22:45;5.68;;;1.20;;
37973;SDS011;23796;51.458;7.000;2023-12-22T13:25:10;3.80;;;1.05;;
37973;SDS011;23796;51.458;7.000;2023-12-22T13:27:45;4.43;;;1.33;;
37973;SDS011;23796;51.458;7.000;2023-12-22T13:30:14;4.68;;;0.80;;
37973;SDS011;23796;51.458;7.000;2023-12-22T13:32:56;2.92;;;0.85;;
37973;SDS011;23796;51.458;7.000;2023-12-22T13:35:24;4.35;;;1.30;;
37973;SDS011;23796;51.458;7.000;2023-12-22T13:37:51;8.35;;;2.50;;
37973;SDS011;23796;51.458;7.000;2023-12-22T13:40:19;4.35;;;1.77;;
37973;SDS011;23796;51.458;7.000;2023-12-22T13:42:55;4.63;;;1.50;;
37973;SDS011;23796;51.458;7.000;2023-12-22T13:45:22;6.82;;;1.95;;
37973;SDS011;23796;51.458;7.000;2023-12-22T13:47:48;4.38;;;1.30;;
37973;SDS011;23796;51.458;7.000;2023-12-22T13:50:14;4.65;;;1.50;;
37973;SDS011;23796;51.458;7.000;2023-12-22T13:52:41;4.70;;;0.98;;
37973;SDS011;23796;51.458;7.000;2023-12-22T13:55:12;5.93;;;1.88;;
37973;SDS011;23796;51.458;7.000;2023-12-22T13:57:38;5.07;;;1.60;;
37973;SDS011;23796;51.458;7.000;2023-12-22T14:05:17;7.57;;;3.05;;
37973;SDS011;23796;51.458;7.000;2023-12-22T14:07:48;4.80;;;1.00;;
37973;SDS011;23796;51.458;7.000;2023-12-22T14:10:14;4.85;;;1.27;;
37973;SDS011;23796;51.458;7.000;2023-12-22T14:12:40;5.63;;;1.55;;
37973;SDS011;23796;51.458;7.000;2023-12-22T14:15:06;6.88;;;1.70;;
37973;SDS011;23796;51.458;7.000;2023-12-22T14:17:33;7.55;;;2.17;;
37973;SDS011;23796;51.458;7.000;2023-12-22T14:19:58;4.18;;;1.52;;
37973;SDS011;23796;51.458;7.000;2023-12-22T14:22:24;6.10;;;1.35;;
37973;SDS011;23796;51.458;7.000;2023-12-22T14:24:51;6.32;;;1.50;;
37973;SDS011;23796;51.458;7.000;2023-12-22T14:27:16;9.13;;;2.35;;
37973;SDS011;23796;51.458;7.000;2023-12-22T14:29:43;10.77;;;2.38;;
37973;SDS011;23796;51.458;7.000;2023-12-22T14:32:09;6.60;;;1.30;;
37973;SDS011;23796;51.458;7.000;2023-12-22T14:34:37;4.15;;;1.00;;
37973;SDS011;23796;51.458;7.000;2023-12-22T14:37:03;4.28;;;1.15;;
37973;SDS011;23796;51.458;7.000;2023-12-22T14:39:29;6.53;;;1.50;;
37973;SDS011;23796;51.458;7.000;2023-12-22T14:41:56;6.30;;;1.10;;
37973;SDS011;23796;51.458;7.000;2023-12-22T14:44:22;4.63;;;1.40;;
37973;SDS011;23796;51.458;7.000;2023-12-22T14:46:50;6.85;;;1.80;;
37973;SDS011;23796;51.458;7.000;2023-12-22T14:49:15;6.45;;;1.55;;
37973;SDS011;23796;51.458;7.000;2023-12-22T14:51:41;4.82;;;1.20;;
37973;SDS011;23796;51.458;7.000;2023-12-22T14:54:07;6.13;;;1.27;;
37973;SDS011;23796;51.458;7.000;2023-12-22T14:56:33;6.32;;;1.30;;
37973;SDS011;23796;51.458;7.000;2023-12-22T14:59:01;5.60;;;1.30;;
37973;SDS011;23796;51.458;7.000;2023-12-22T15:01:27;8.85;;;1.80;;
37973;SDS011;23796;51.458;7.000;2023-12-22T15:03:52;6.20;;;1.33;;
37973;SDS011;23796;51.458;7.000;2023-12-22T15:06:18;4.10;;;1.17;;
37973;SDS011;23796;51.458;7.000;2023-12-22T15:08:44;5.72;;;1.55;;
37973;SDS011;23796;51.458;7.000;2023-12-22T15:11:10;3.67;;;1.17;;